createdAt,value
2022-12-11T00:00:08.110Z,-1.20
2022-12-11T00:02:35.496Z,-1.10
2022-12-11T00:05:02.352Z,-1.30
2022-12-11T00:07:29.668Z,-1.10
2022-12-11T00:09:56.370Z,-0.90
2022-12-11T00:12:23.027Z,-1.10
2022-12-11T00:14:49.705Z,-1.20
2022-12-11T00:17:16.435Z,-1.20
2022-12-11T00:19:43.083Z,-1.10
2022-12-11T00:22:09.792Z,-1.20
2022-12-11T00:24:36.513Z,-1.10
2022-12-11T00:27:03.240Z,-1.10
2022-12-11T00:29:30.725Z,-0.90
2022-12-11T00:31:57.426Z,-0.80
2022-12-11T00:34:24.327Z,-0.90
2022-12-11T00:36:50.994Z,-0.80
2022-12-11T00:39:17.664Z,-0.70
2022-12-11T00:41:44.890Z,-0.70
2022-12-11T00:44:11.630Z,-0.80
2022-12-11T00:46:38.407Z,-0.90
2022-12-11T00:49:05.058Z,-0.80
2022-12-11T00:51:31.699Z,-0.70
2022-12-11T00:53:58.343Z,-0.70
2022-12-11T00:56:25.230Z,-0.70
2022-12-11T00:58:52.200Z,-0.70
2022-12-11T01:01:22.239Z,-0.60
2022-12-11T01:03:49.364Z,-0.60
2022-12-11T01:06:18.400Z,-0.40
2022-12-11T01:08:46.526Z,-0.30
2022-12-11T01:11:16.049Z,-0.20
2022-12-11T01:13:43.278Z,-0.40
2022-12-11T01:16:12.438Z,-0.40
2022-12-11T01:18:39.310Z,-0.20
2022-12-11T01:21:11.721Z,-0.20
2022-12-11T01:23:39.123Z,-0.20
2022-12-11T01:26:11.309Z,-0.30
2022-12-11T01:28:38.779Z,-0.20
2022-12-11T01:31:13.418Z,-0.40
2022-12-11T01:33:40.794Z,-0.50
2022-12-11T01:36:19.379Z,-0.50
2022-12-11T01:38:48.174Z,-0.50
2022-12-11T01:41:16.541Z,-0.50
2022-12-11T01:44:04.374Z,-0.40
2022-12-11T01:46:33.820Z,-0.40
2022-12-11T01:49:04.278Z,-0.40
2022-12-11T01:51:35.978Z,-0.40
2022-12-11T01:54:07.504Z,-0.40
2022-12-11T01:56:37.874Z,-0.30
2022-12-11T01:59:07.840Z,-0.20
2022-12-11T02:01:42.328Z,-0.30
2022-12-11T02:04:10.947Z,-0.20
2022-12-11T02:06:49.203Z,-0.30
2022-12-11T02:09:19.515Z,-0.20
2022-12-11T02:11:55.247Z,-0.10
2022-12-11T02:14:36.845Z,-0.20
2022-12-11T02:17:09.999Z,-0.30
2022-12-11T02:19:51.414Z,-0.40
2022-12-11T02:22:53.390Z,-0.30
2022-12-11T02:25:35.492Z,-0.20
2022-12-11T02:28:38.104Z,-0.10
2022-12-11T02:31:12.798Z,0.20
2022-12-11T02:33:50.680Z,0.20
2022-12-11T02:36:21.234Z,0.00
2022-12-11T02:38:51.109Z,0.20
2022-12-11T02:41:20.163Z,0.20
2022-12-11T02:43:49.114Z,0.30
2022-12-11T02:46:18.346Z,0.40
2022-12-11T02:48:47.686Z,0.60
2022-12-11T02:51:17.035Z,0.50
2022-12-11T02:53:45.104Z,0.40
2022-12-11T02:56:26.622Z,0.20
2022-12-11T02:59:01.295Z,0.00
2022-12-11T03:01:28.470Z,0.20
2022-12-11T03:03:56.465Z,0.40
2022-12-11T03:06:36.192Z,0.40
2022-12-11T03:09:04.388Z,0.10
2022-12-11T03:11:31.092Z,0.00
2022-12-11T03:13:58.340Z,-0.10
2022-12-11T03:16:35.856Z,0.00
2022-12-11T03:19:43.194Z,-0.10
2022-12-11T03:22:20.524Z,0.00
2022-12-11T03:25:05.978Z,0.00
2022-12-11T03:27:57.899Z,0.00
2022-12-11T03:30:26.903Z,0.00
2022-12-11T03:32:58.178Z,-0.10
2022-12-11T03:35:26.637Z,-0.10
2022-12-11T03:37:56.558Z,0.00
2022-12-11T03:40:25.785Z,0.20
2022-12-11T03:42:56.400Z,0.10
2022-12-11T03:45:24.728Z,0.10
2022-12-11T03:47:53.462Z,0.00
2022-12-11T03:50:22.504Z,0.10
2022-12-11T03:52:50.680Z,0.20
2022-12-11T03:55:19.243Z,0.10
2022-12-11T03:57:45.918Z,0.10
2022-12-11T04:00:17.125Z,0.00
2022-12-11T04:02:44.880Z,0.00
2022-12-11T04:05:12.343Z,0.00
2022-12-11T04:07:39.268Z,0.20
2022-12-11T04:10:07.248Z,0.10
2022-12-11T04:12:33.959Z,0.00
2022-12-11T04:15:03.669Z,-0.10
2022-12-11T04:17:51.501Z,0.00
2022-12-11T04:20:36.963Z,0.00
2022-12-11T04:23:30.395Z,0.00
2022-12-11T04:26:18.112Z,0.00
2022-12-11T04:28:46.362Z,-0.10
2022-12-11T04:31:19.673Z,0.00
2022-12-11T04:33:47.034Z,0.10
2022-12-11T04:36:14.508Z,0.00
2022-12-11T04:38:41.537Z,0.00
2022-12-11T04:41:12.368Z,0.10
2022-12-11T04:43:39.444Z,0.10
2022-12-11T04:46:24.652Z,0.20
2022-12-11T04:48:57.387Z,0.10
2022-12-11T04:51:25.013Z,0.10
2022-12-11T04:53:51.795Z,0.20
2022-12-11T04:56:19.168Z,0.10
2022-12-11T04:58:46.602Z,0.00
2022-12-11T05:01:19.348Z,0.00
2022-12-11T05:03:47.006Z,-0.10
2022-12-11T05:06:13.900Z,-0.10
2022-12-11T05:08:42.446Z,-0.10
2022-12-11T05:11:12.806Z,0.00
2022-12-11T05:13:39.933Z,0.00
2022-12-11T05:16:08.834Z,-0.10
2022-12-11T05:18:35.878Z,-0.20
2022-12-11T05:21:05.362Z,-0.10
2022-12-11T05:23:32.593Z,0.10
2022-12-11T05:26:02.346Z,0.10
2022-12-11T05:28:32.815Z,-0.10
2022-12-11T05:31:02.195Z,-0.10
2022-12-11T05:33:29.643Z,-0.30
2022-12-11T05:35:56.902Z,-0.40
2022-12-11T05:38:24.437Z,-0.40
2022-12-11T05:40:57.743Z,-0.50
2022-12-11T05:43:24.956Z,-0.60
2022-12-11T05:45:51.618Z,-0.50
2022-12-11T05:48:18.332Z,-0.50
2022-12-11T05:50:45.663Z,-0.60
2022-12-11T05:53:12.331Z,-0.50
2022-12-11T05:55:38.994Z,-0.50
2022-12-11T05:58:05.654Z,-0.60
2022-12-11T06:00:36.039Z,-0.80
2022-12-11T06:03:03.209Z,-0.70
2022-12-11T06:05:30.030Z,-0.70
2022-12-11T06:07:56.786Z,-0.70
2022-12-11T06:10:23.516Z,-0.80
2022-12-11T06:12:50.192Z,-0.70
2022-12-11T06:15:16.899Z,-0.50
2022-12-11T06:17:43.518Z,-0.60
2022-12-11T06:20:10.519Z,-0.60
2022-12-11T06:22:37.449Z,-0.70
2022-12-11T06:25:04.607Z,-0.80
2022-12-11T06:27:31.274Z,-0.70
2022-12-11T06:29:57.927Z,-0.70
2022-12-11T06:32:24.631Z,-0.50
2022-12-11T06:34:51.316Z,-0.40
2022-12-11T06:37:18.086Z,-0.30
2022-12-11T06:39:44.902Z,-0.30
2022-12-11T06:42:11.641Z,-0.20
2022-12-11T06:44:38.298Z,-0.40
2022-12-11T06:47:05.359Z,-0.30
2022-12-11T06:49:32.100Z,-0.40
2022-12-11T06:51:58.779Z,-0.40
2022-12-11T06:54:27.187Z,-0.10
2022-12-11T06:56:53.957Z,-0.10
2022-12-11T06:59:20.687Z,-0.30
2022-12-11T07:01:47.395Z,-0.30
2022-12-11T07:04:14.081Z,-0.40
2022-12-11T07:06:40.795Z,-0.80
2022-12-11T07:09:07.650Z,-0.90
2022-12-11T07:11:34.350Z,-0.80
2022-12-11T07:14:01.266Z,-0.60
2022-12-11T07:16:27.988Z,-0.60
2022-12-11T07:18:54.748Z,-0.60
2022-12-11T07:21:21.481Z,-0.50
2022-12-11T07:23:49.345Z,-0.50
2022-12-11T07:26:18.673Z,-0.60
2022-12-11T07:28:45.909Z,-0.60
2022-12-11T07:31:15.626Z,-0.60
2022-12-11T07:33:43.769Z,-0.40
2022-12-11T07:36:12.022Z,-0.30
2022-12-11T07:38:39.191Z,-0.10
2022-12-11T07:41:08.447Z,-0.10
2022-12-11T07:43:36.259Z,-0.20
2022-12-11T07:46:05.185Z,-0.20
2022-12-11T07:48:31.936Z,-0.20
2022-12-11T07:51:19.550Z,-0.10
2022-12-11T07:53:48.896Z,-0.20
2022-12-11T07:56:17.839Z,-0.40
2022-12-11T07:58:45.284Z,-0.50
2022-12-11T08:01:16.744Z,-0.70
2022-12-11T08:03:43.657Z,-0.70
2022-12-11T08:06:11.423Z,-0.40
2022-12-11T08:08:39.241Z,-0.30
2022-12-11T08:11:08.252Z,-0.20
2022-12-11T08:13:35.052Z,-0.10
2022-12-11T08:16:10.687Z,-0.20
2022-12-11T08:18:38.064Z,-0.40
2022-12-11T08:21:19.961Z,-0.50
2022-12-11T08:23:47.324Z,-0.60
2022-12-11T08:26:19.920Z,-0.50
2022-12-11T08:28:47.033Z,-0.60
2022-12-11T08:31:15.621Z,-1.00
2022-12-11T08:33:42.775Z,-1.10
2022-12-11T08:36:12.139Z,-1.10
2022-12-11T08:38:39.461Z,-0.80
2022-12-11T08:41:10.135Z,-1.30
2022-12-11T08:43:36.996Z,-1.30
2022-12-11T08:46:03.795Z,-1.20
2022-12-11T08:48:30.657Z,-0.90
2022-12-11T08:51:01.434Z,-0.70
2022-12-11T08:53:32.879Z,-0.70
2022-12-11T08:56:09.884Z,-0.60
2022-12-11T08:58:37.302Z,-0.30
2022-12-11T09:01:09.840Z,-0.30
2022-12-11T09:03:38.027Z,-0.20
2022-12-11T09:06:10.166Z,-0.20
2022-12-11T09:08:38.065Z,-0.10
2022-12-11T09:11:10.940Z,-0.20
2022-12-11T09:13:38.756Z,-0.30
2022-12-11T09:16:08.230Z,-0.40
2022-12-11T09:18:35.785Z,-0.40
2022-12-11T09:21:05.096Z,-0.10
2022-12-11T09:23:32.315Z,-0.20
2022-12-11T09:25:59.360Z,-0.20
2022-12-11T09:28:26.451Z,0.00
2022-12-11T09:30:53.424Z,0.10
2022-12-11T09:33:20.225Z,0.00
2022-12-11T09:35:56.300Z,-0.20
2022-12-11T09:38:22.992Z,-0.20
2022-12-11T09:40:49.709Z,-0.20
2022-12-11T09:43:36.178Z,-0.30
2022-12-11T09:46:06.744Z,-0.50
2022-12-11T09:48:35.244Z,-0.40
2022-12-11T09:51:10.661Z,-0.40
2022-12-11T09:53:38.279Z,-0.40
2022-12-11T09:56:22.051Z,-0.30
2022-12-11T09:59:26.408Z,-0.20
2022-12-11T10:02:03.578Z,0.00
2022-12-11T10:04:30.230Z,-0.10
2022-12-11T10:07:17.710Z,-0.30
2022-12-11T10:10:03.051Z,-0.50
2022-12-11T10:12:51.870Z,-0.50
2022-12-11T10:15:43.078Z,-0.20
2022-12-11T10:18:17.317Z,-0.30
2022-12-11T10:20:45.425Z,-0.50
2022-12-11T10:23:20.358Z,-0.80
2022-12-11T10:26:10.190Z,-0.70
2022-12-11T10:28:37.031Z,-0.40
2022-12-11T10:31:17.037Z,-0.10
2022-12-11T10:33:55.800Z,0.00
2022-12-11T10:36:31.634Z,-0.10
2022-12-11T10:38:58.885Z,-0.30
2022-12-11T10:41:39.659Z,-0.30
2022-12-11T10:44:26.049Z,-0.30
2022-12-11T10:47:14.574Z,-0.20
2022-12-11T10:49:56.647Z,-0.40
2022-12-11T10:52:26.709Z,-0.60
2022-12-11T10:55:01.999Z,-0.80
2022-12-11T10:57:35.290Z,-0.90
2022-12-11T11:00:05.059Z,-0.60
2022-12-11T11:02:36.095Z,-0.50
2022-12-11T11:05:17.097Z,-0.30
2022-12-11T11:07:44.074Z,-0.30
2022-12-11T11:10:11.048Z,-0.10
2022-12-11T11:12:49.062Z,-0.40
2022-12-11T11:15:25.293Z,-0.50
2022-12-11T11:17:55.708Z,-0.50
2022-12-11T11:20:29.220Z,-0.60
2022-12-11T11:22:59.271Z,-0.60
2022-12-11T11:25:29.796Z,-0.70
2022-12-11T11:28:03.598Z,-0.50
2022-12-11T11:30:32.132Z,-0.40
2022-12-11T11:33:04.474Z,-0.30
2022-12-11T11:35:32.999Z,-0.30
2022-12-11T11:38:02.762Z,-0.10
2022-12-11T11:40:34.128Z,-0.30
2022-12-11T11:43:29.247Z,-0.70
2022-12-11T11:46:04.452Z,-0.90
2022-12-11T11:49:03.892Z,-0.90
2022-12-11T11:51:43.358Z,-0.90
2022-12-11T11:54:31.364Z,-0.80
2022-12-11T11:57:01.680Z,-1.00
2022-12-11T11:59:41.467Z,-0.90
2022-12-11T12:02:18.397Z,-1.00
2022-12-11T12:04:46.859Z,-0.70
2022-12-11T12:07:14.792Z,-0.50
2022-12-11T12:09:57.190Z,-0.30
2022-12-11T12:12:52.707Z,-0.30
2022-12-11T12:15:31.279Z,0.00
2022-12-11T12:18:19.309Z,-0.20
2022-12-11T12:21:05.101Z,-0.20
2022-12-11T12:23:43.730Z,-0.20
2022-12-11T12:26:36.506Z,-0.20
2022-12-11T12:29:28.531Z,-0.30
2022-12-11T12:32:27.109Z,-0.40
2022-12-11T12:35:12.092Z,-0.40
2022-12-11T12:38:06.127Z,-0.40
2022-12-11T12:40:40.025Z,-0.40
2022-12-11T12:43:24.919Z,-0.40
2022-12-11T12:45:59.028Z,-0.10
2022-12-11T12:48:27.722Z,-0.10
2022-12-11T12:50:55.777Z,0.00
2022-12-11T12:53:29.517Z,0.20
2022-12-11T12:55:57.259Z,0.20
2022-12-11T12:58:42.962Z,0.30
2022-12-11T13:01:12.831Z,0.30
2022-12-11T13:03:59.054Z,0.40
2022-12-11T13:06:35.862Z,0.50
2022-12-11T13:09:26.545Z,0.70
2022-12-11T13:11:57.600Z,0.80
2022-12-11T13:14:32.511Z,0.70
2022-12-11T13:17:26.951Z,0.80
2022-12-11T13:20:13.818Z,0.90
2022-12-11T13:23:05.786Z,1.00
2022-12-11T13:25:45.751Z,0.90
2022-12-11T13:28:24.023Z,0.80
2022-12-11T13:31:05.517Z,0.80
2022-12-11T13:33:32.785Z,0.80
2022-12-11T13:36:26.512Z,1.00
2022-12-11T13:39:22.467Z,1.10
2022-12-11T13:41:54.253Z,1.00
2022-12-11T13:44:41.572Z,0.80
2022-12-11T13:47:14.565Z,0.50
2022-12-11T13:49:44.172Z,0.70
2022-12-11T13:52:28.702Z,0.60
2022-12-11T13:54:59.035Z,0.60
2022-12-11T13:57:30.876Z,0.50
2022-12-11T13:59:59.478Z,0.80
2022-12-11T14:02:35.327Z,1.00
2022-12-11T14:05:13.309Z,0.90
2022-12-11T14:07:52.879Z,1.00
2022-12-11T14:10:25.377Z,1.00
2022-12-11T14:12:55.668Z,1.00
2022-12-11T14:15:23.347Z,0.90
2022-12-11T14:17:52.059Z,0.90
2022-12-11T14:20:26.010Z,0.90
2022-12-11T14:22:52.788Z,0.90
2022-12-11T14:25:27.363Z,0.90
2022-12-11T14:27:56.677Z,1.00
2022-12-11T14:30:25.042Z,0.90
2022-12-11T14:33:04.308Z,0.90
2022-12-11T14:35:37.090Z,0.90
2022-12-11T14:38:15.531Z,0.80
2022-12-11T14:40:46.665Z,0.60
2022-12-11T14:43:30.707Z,0.50
2022-12-11T14:46:02.581Z,0.50
2022-12-11T14:48:37.540Z,0.40
2022-12-11T14:51:07.557Z,0.40
2022-12-11T14:53:43.266Z,0.40
2022-12-11T14:56:20.992Z,0.50
2022-12-11T14:58:54.444Z,0.70
2022-12-11T15:01:27.735Z,0.50
2022-12-11T15:04:19.555Z,0.50
2022-12-11T15:06:48.858Z,0.50
2022-12-11T15:09:29.284Z,0.40
2022-12-11T15:11:59.677Z,0.30
2022-12-11T15:14:27.611Z,0.30
2022-12-11T15:16:57.531Z,0.20
2022-12-11T15:19:24.315Z,0.20
2022-12-11T15:21:52.113Z,0.20
2022-12-11T15:24:26.511Z,0.30
2022-12-11T15:26:58.470Z,0.40
2022-12-11T15:29:32.039Z,0.40
2022-12-11T15:32:01.194Z,0.60
2022-12-11T15:34:42.209Z,0.80
2022-12-11T15:37:28.520Z,0.70
2022-12-11T15:39:56.950Z,0.80
2022-12-11T15:42:32.143Z,0.70
2022-12-11T15:44:59.826Z,0.70
2022-12-11T15:47:29.917Z,0.40
2022-12-11T15:50:26.732Z,0.30
2022-12-11T15:52:55.075Z,0.40
2022-12-11T15:55:25.564Z,0.50
2022-12-11T15:58:01.094Z,0.50
2022-12-11T16:00:28.126Z,0.60
2022-12-11T16:02:55.909Z,0.70
2022-12-11T16:05:23.516Z,1.00
2022-12-11T16:07:54.627Z,0.90
2022-12-11T16:10:22.103Z,0.70
2022-12-11T16:12:49.013Z,0.70
2022-12-11T16:15:21.680Z,0.60
2022-12-11T16:17:50.674Z,0.70
2022-12-11T16:20:17.664Z,0.70
2022-12-11T16:22:44.620Z,0.80
2022-12-11T16:25:11.768Z,0.90
2022-12-11T16:27:38.695Z,1.20
2022-12-11T16:30:06.431Z,1.20
2022-12-11T16:32:33.209Z,1.00
2022-12-11T16:35:01.007Z,1.00
2022-12-11T16:37:27.908Z,0.80
2022-12-11T16:39:54.591Z,0.70
2022-12-11T16:42:21.315Z,0.70
2022-12-11T16:44:48.533Z,0.80
2022-12-11T16:47:15.294Z,0.80
2022-12-11T16:49:45.138Z,0.70
2022-12-11T16:52:11.869Z,0.70
2022-12-11T16:54:38.711Z,0.70
2022-12-11T16:57:05.537Z,0.70
2022-12-11T16:59:36.907Z,0.70
2022-12-11T17:02:04.728Z,0.80
2022-12-11T17:04:31.621Z,0.80
2022-12-11T17:06:58.848Z,0.80
2022-12-11T17:09:25.776Z,0.80
2022-12-11T17:11:53.681Z,0.70
2022-12-11T17:14:20.399Z,0.80
2022-12-11T17:16:48.097Z,0.70
2022-12-11T17:19:15.620Z,0.50
2022-12-11T17:21:45.887Z,0.30
2022-12-11T17:24:17.125Z,0.30
2022-12-11T17:26:44.113Z,0.40
2022-12-11T17:29:12.249Z,0.50
2022-12-11T17:31:39.348Z,0.50
2022-12-11T17:34:06.396Z,0.50
2022-12-11T17:36:33.332Z,0.60
2022-12-11T17:39:00.076Z,0.60
2022-12-11T17:41:26.807Z,0.60
2022-12-11T17:43:55.994Z,0.60
2022-12-11T17:46:23.222Z,0.60
2022-12-11T17:48:50.000Z,0.60
2022-12-11T17:51:21.852Z,0.40
2022-12-11T17:53:49.444Z,0.40
2022-12-11T17:56:16.492Z,0.30
2022-12-11T17:58:43.472Z,0.30
2022-12-11T18:01:11.755Z,0.30
2022-12-11T18:03:40.401Z,0.30
2022-12-11T18:06:12.870Z,0.40
2022-12-11T18:08:40.117Z,0.50
2022-12-11T18:11:09.613Z,0.50
2022-12-11T18:13:36.473Z,0.40
2022-12-11T18:16:36.708Z,0.20
2022-12-11T18:19:05.359Z,0.20
2022-12-11T18:21:34.648Z,0.20
2022-12-11T18:24:01.975Z,0.40
2022-12-11T18:26:29.000Z,0.40
2022-12-11T18:28:55.705Z,0.50
2022-12-11T18:31:23.517Z,0.40
2022-12-11T18:33:51.070Z,0.40
2022-12-11T18:36:21.691Z,0.20
2022-12-11T18:38:49.027Z,0.10
2022-12-11T18:41:17.055Z,0.10
2022-12-11T18:43:43.764Z,0.10
2022-12-11T18:46:14.327Z,0.40
2022-12-11T18:48:42.502Z,0.20
2022-12-11T18:51:12.263Z,0.10
2022-12-11T18:53:40.903Z,0.00
2022-12-11T18:56:15.903Z,0.00
2022-12-11T18:58:43.323Z,0.10
2022-12-11T19:01:23.544Z,0.10
2022-12-11T19:03:51.369Z,0.30
2022-12-11T19:06:21.762Z,0.50
2022-12-11T19:08:48.528Z,0.50
2022-12-11T19:11:20.120Z,0.20
2022-12-11T19:13:47.348Z,0.00
2022-12-11T19:16:19.141Z,0.00
2022-12-11T19:18:46.014Z,0.20
2022-12-11T19:21:14.338Z,0.40
2022-12-11T19:23:41.764Z,0.70
2022-12-11T19:26:19.484Z,0.30
2022-12-11T19:28:47.371Z,0.20
2022-12-11T19:31:17.140Z,0.20
2022-12-11T19:33:44.503Z,0.20
2022-12-11T19:36:13.783Z,0.20
2022-12-11T19:38:42.126Z,0.40
2022-12-11T19:41:17.928Z,0.40
2022-12-11T19:43:45.067Z,0.60
2022-12-11T19:46:13.127Z,0.80
2022-12-11T19:48:41.651Z,0.70
2022-12-11T19:51:14.230Z,0.40
2022-12-11T19:53:41.833Z,0.20
2022-12-11T19:56:09.907Z,0.00
2022-12-11T19:58:36.999Z,0.10
2022-12-11T20:01:04.446Z,0.10
2022-12-11T20:03:31.704Z,0.00
2022-12-11T20:06:07.352Z,0.00
2022-12-11T20:08:44.747Z,0.00
2022-12-11T20:11:17.830Z,0.10
2022-12-11T20:13:45.938Z,0.20
2022-12-11T20:16:13.606Z,0.00
2022-12-11T20:18:40.726Z,-0.10
2022-12-11T20:21:10.035Z,-0.10
2022-12-11T20:23:36.821Z,-0.20
2022-12-11T20:26:13.310Z,-0.20
2022-12-11T20:28:40.119Z,-0.20
2022-12-11T20:31:14.873Z,-0.30
2022-12-11T20:33:44.904Z,-0.40
2022-12-11T20:36:14.543Z,-0.50
2022-12-11T20:38:41.651Z,-0.60
2022-12-11T20:41:14.042Z,-0.60
2022-12-11T20:43:41.470Z,-0.40
2022-12-11T20:46:10.082Z,-0.60
2022-12-11T20:48:38.812Z,-0.70
2022-12-11T20:51:08.000Z,-0.80
2022-12-11T20:53:36.006Z,-0.70
2022-12-11T20:56:08.704Z,-0.70
2022-12-11T20:58:36.044Z,-0.70
2022-12-11T21:01:02.839Z,-0.80
2022-12-11T21:03:29.615Z,-0.80
2022-12-11T21:05:56.291Z,-0.70
2022-12-11T21:08:23.042Z,-0.60
2022-12-11T21:10:49.887Z,-0.80
2022-12-11T21:13:16.817Z,-0.90
2022-12-11T21:15:44.066Z,-0.90
2022-12-11T21:18:10.735Z,-1.00
2022-12-11T21:20:37.564Z,-0.90
2022-12-11T21:23:04.346Z,-0.80
2022-12-11T21:25:31.360Z,-0.80
2022-12-11T21:27:58.017Z,-0.80
2022-12-11T21:30:24.699Z,-0.80
2022-12-11T21:32:51.366Z,-0.90
2022-12-11T21:35:18.239Z,-0.90
2022-12-11T21:37:45.023Z,-0.80
2022-12-11T21:40:12.209Z,-0.90
2022-12-11T21:42:39.049Z,-1.10
2022-12-11T21:47:53.352Z,-0.70
2022-12-11T21:50:21.244Z,-0.50
2022-12-11T21:52:47.964Z,-0.60
2022-12-11T21:55:14.902Z,-0.80
2022-12-11T21:57:41.563Z,-0.70
2022-12-11T22:00:09.311Z,-0.70
2022-12-11T22:02:41.108Z,-0.60
2022-12-11T22:05:09.279Z,-0.60
2022-12-11T22:07:36.276Z,-0.70
2022-12-11T22:10:03.751Z,-1.00
2022-12-11T22:12:30.458Z,-1.20
2022-12-11T22:14:57.471Z,-1.20
2022-12-11T22:17:24.524Z,-1.10
2022-12-11T22:19:53.935Z,-1.10
2022-12-11T22:22:20.676Z,-1.00
2022-12-11T22:24:47.557Z,-0.80
2022-12-11T22:27:16.828Z,-0.80
2022-12-11T22:29:47.219Z,-0.90
2022-12-11T22:32:14.378Z,-0.80
2022-12-11T22:34:41.152Z,-0.80
2022-12-11T22:37:08.361Z,-0.70
2022-12-11T22:39:35.022Z,-1.00
2022-12-11T22:42:01.745Z,-0.90
2022-12-11T22:44:28.431Z,-0.90
2022-12-11T22:46:55.086Z,-1.00
2022-12-11T22:49:21.771Z,-1.10
2022-12-11T22:51:49.093Z,-1.10
2022-12-11T22:54:16.051Z,-1.00
2022-12-11T22:56:42.799Z,-0.80
2022-12-11T22:59:09.572Z,-0.80
2022-12-11T23:01:36.355Z,-0.80
2022-12-11T23:04:03.091Z,-0.70
2022-12-11T23:06:29.849Z,-0.60
2022-12-11T23:09:00.396Z,-0.70
2022-12-11T23:11:30.173Z,-0.70
2022-12-11T23:13:57.438Z,-0.70
2022-12-11T23:16:26.392Z,-0.70
2022-12-11T23:18:54.426Z,-0.50
2022-12-11T23:21:21.911Z,-0.60
2022-12-11T23:23:48.721Z,-0.90
2022-12-11T23:26:16.151Z,-0.80
2022-12-11T23:28:42.915Z,-0.80
2022-12-11T23:31:10.169Z,-0.90
2022-12-11T23:33:37.613Z,-0.70
2022-12-11T23:36:04.953Z,-0.70
2022-12-11T23:38:31.866Z,-0.70
2022-12-11T23:40:59.818Z,-0.60
2022-12-11T23:43:26.896Z,-0.60
2022-12-11T23:45:53.950Z,-0.40
2022-12-11T23:48:20.699Z,-0.40
2022-12-11T23:50:48.048Z,-0.40
2022-12-11T23:53:14.783Z,-0.50
2022-12-11T23:55:44.104Z,-0.70
2022-12-11T23:58:11.238Z,-0.90
